Time;durP1;ratioP1;P1;durP2;ratioP2;P2;SDS_P1;SDS_P2;PMS_P1;PMS_P2;Temp;Humidity;BMP_temperature;BMP_pressure;BME280_temperature;BME280_humidity;BME280_pressure;Samples;Min_cycle;Max_cycle;Signal;HPM_P1;HPM_P2
2023/07/10 00:02:21;;;;;;;;;;;;;;;-140.72;100.00;52409.13;4971476;28;20044;-70
2023/07/10 00:04:46;;;;;;;;;;;;;;;-140.72;100.00;52455.78;4986683;28;19987;-70
2023/07/10 00:07:12;;;;;;;;;;;;;;;-140.72;100.00;52427.38;4986115;28;20329;-70
2023/07/10 00:09:37;;;;;;;;;;;;;;;-140.72;100.00;52451.72;4986326;28;20288;-70
2023/07/10 00:12:04;;;;;;;;;;;;;;;-140.72;100.00;52463.91;4988147;28;19973;-70
2023/07/10 00:14:33;;;;;;;;;;;;;;;-140.72;100.00;52415.22;4987708;28;20895;-70
2023/07/10 00:16:58;;;;;;;;;;;;;;;-140.72;100.00;52429.41;4984911;28;20491;-70
2023/07/10 00:19:24;;;;;;;;;;;;;;;-140.72;100.00;52465.94;4987023;28;20013;-70
2023/07/10 00:21:49;;;;;;;;;;;;;;;-140.72;100.00;52439.56;4985745;28;19949;-70
2023/07/10 00:24:14;;;;;;;;;;;;;;;-140.72;100.00;52429.41;4986964;28;19930;-70
2023/07/10 00:26:42;;;;;;;;;;;;;;;-140.72;100.00;52415.22;4969119;28;19930;-70
2023/07/10 00:29:19;;;;;;;;;;;;;;;-140.72;100.00;52451.72;4985506;28;19922;-70
2023/07/10 00:31:44;;;;;;;;;;;;;;;-140.72;100.00;52425.34;4986034;28;19981;-70
2023/07/10 00:34:16;;;;;;;;;;;;;;;-140.72;100.00;52431.44;4986078;28;19925;-70
2023/07/10 00:36:43;;;;;;;;;;;;;;;-140.72;100.00;52474.06;4980178;28;19922;-70
2023/07/10 00:39:25;;;;;;;;;;;;;;;-140.72;100.00;52435.50;4986336;28;19929;-69
2023/07/10 00:41:57;;;;;;;;;;;;;;;-140.72;100.00;52425.34;4987804;28;19973;-70
2023/07/10 00:44:26;;;;;;;;;;;;;;;-140.72;100.00;52461.88;4984378;28;19933;-69
2023/07/10 00:46:56;;;;;;;;;;;;;;;-140.72;100.00;52449.72;4970938;28;20291;-70
2023/07/10 00:49:21;;;;;;;;;;;;;;;-140.72;100.00;52439.56;4986221;28;19925;-69
2023/07/10 00:51:53;;;;;;;;;;;;;;;-140.72;100.00;52439.56;4967436;28;20438;-70
2023/07/10 00:54:33;;;;;;;;;;;;;;;-140.72;100.00;52419.28;4984070;28;19954;-70
2023/07/10 00:56:59;;;;;;;;;;;;;;;-140.72;100.00;52439.56;4986756;28;19984;-70
2023/07/10 00:59:26;;;;;;;;;;;;;;;-140.72;100.00;52472.03;4969631;28;19950;-70
2023/07/10 01:02:07;;;;;;;;;;;;;;;-140.72;100.00;52447.69;4987134;28;20357;-70
2023/07/10 01:04:32;;;;;;;;;;;;;;;-140.72;100.00;52474.06;4979170;28;20288;-70
2023/07/10 01:06:57;;;;;;;;;;;;;;;-140.72;100.00;52500.44;4987857;28;19926;-70
2023/07/10 01:09:23;;;;;;;;;;;;;;;-140.72;100.00;52461.88;4984384;28;19929;-70
2023/07/10 01:11:48;;;;;;;;;;;;;;;-140.72;100.00;52451.72;4989031;28;20355;-70
2023/07/10 01:14:15;;;;;;;;;;;;;;;-140.72;100.00;52451.72;4987476;28;19921;-70
2023/07/10 01:16:40;;;;;;;;;;;;;;;-140.72;100.00;52467.97;4986945;28;20284;-70
2023/07/10 01:19:09;;;;;;;;;;;;;;;-140.72;100.00;52508.56;4986220;28;19960;-70
2023/07/10 01:21:38;;;;;;;;;;;;;;;-140.72;100.00;52472.03;4987616;28;20020;-70
2023/07/10 01:24:05;;;;;;;;;;;;;;;-140.72;100.00;52484.19;4986496;28;19928;-70
2023/07/10 01:26:31;;;;;;;;;;;;;;;-140.72;100.00;52463.91;4985345;28;19961;-70
2023/07/10 01:28:57;;;;;;;;;;;;;;;-140.72;100.00;52437.53;4984955;28;19976;-70
2023/07/10 01:31:24;;;;;;;;;;;;;;;-140.72;100.00;52463.91;4987607;28;20033;-69
2023/07/10 01:33:51;;;;;;;;;;;;;;;-140.72;100.00;52518.69;4988034;28;19922;-69
2023/07/10 01:36:18;;;;;;;;;;;;;;;-140.72;100.00;52528.84;4989194;28;19930;-70
2023/07/10 01:38:48;;;;;;;;;;;;;;;-140.72;100.00;52512.59;4987440;28;19929;-69
2023/07/10 01:41:27;;;;;;;;;;;;;;;-140.72;100.00;52480.16;4969825;28;20336;-69
2023/07/10 01:43:52;;;;;;;;;;;;;;;-140.72;100.00;52463.91;4989415;28;20371;-69
2023/07/10 01:46:22;;;;;;;;;;;;;;;-140.72;100.00;52488.25;4990143;28;19940;-70
2023/07/10 01:48:50;;;;;;;;;;;;;;;-140.72;100.00;52492.31;4987245;28;19922;-70
2023/07/10 01:51:15;;;;;;;;;;;;;;;-140.72;100.00;52488.25;4983652;28;20016;-70
2023/07/10 01:53:42;;;;;;;;;;;;;;;-140.72;100.00;52522.75;4982783;28;19929;-70
2023/07/10 01:56:08;;;;;;;;;;;;;;;-140.72;100.00;52502.47;4984599;28;19922;-70
2023/07/10 01:58:33;;;;;;;;;;;;;;;-140.72;100.00;52522.75;4986596;28;19945;-70
2023/07/10 02:00:58;;;;;;;;;;;;;;;-140.72;100.00;52512.59;4985875;28;20736;-70
2023/07/10 02:03:23;;;;;;;;;;;;;;;-140.72;100.00;52502.47;4986507;28;19922;-74
2023/07/10 02:05:49;;;;;;;;;;;;;;;-140.72;100.00;52522.75;4984665;28;19965;-70
2023/07/10 02:08:14;;;;;;;;;;;;;;;-140.72;100.00;52488.25;4967281;28;19921;-70
2023/07/10 02:10:39;;;;;;;;;;;;;;;-140.72;100.00;52524.78;4984937;28;19925;-70
2023/07/10 02:13:04;;;;;;;;;;;;;;;-140.72;100.00;52528.84;4984427;28;19921;-70
2023/07/10 02:15:30;;;;;;;;;;;;;;;-140.72;100.00;52516.66;4985726;28;19930;-70
2023/07/10 02:17:57;;;;;;;;;;;;;;;-140.72;100.00;52508.56;4986343;28;19937;-70
2023/07/10 02:20:22;;;;;;;;;;;;;;;-140.72;100.00;52518.69;4981592;28;20422;-71
2023/07/10 02:22:47;;;;;;;;;;;;;;;-140.72;100.00;52496.38;4968638;28;19922;-70
2023/07/10 02:25:13;;;;;;;;;;;;;;;-140.72;100.00;52510.59;4987232;28;19922;-70
2023/07/10 02:27:38;;;;;;;;;;;;;;;-140.72;100.00;52528.84;4973259;28;19929;-70
2023/07/10 02:30:03;;;;;;;;;;;;;;;-140.72;100.00;52526.81;4991107;28;19964;-70
2023/07/10 02:32:29;;;;;;;;;;;;;;;-140.72;100.00;52504.50;4990201;28;19984;-70
2023/07/10 02:34:54;;;;;;;;;;;;;;;-140.72;100.00;52541.03;4988866;28;19930;-70
2023/07/10 02:37:20;;;;;;;;;;;;;;;-140.72;100.00;52524.78;4971092;28;19925;-70
2023/07/10 02:39:45;;;;;;;;;;;;;;;-140.72;100.00;52547.09;4994208;28;20283;-70
2023/07/10 02:42:10;;;;;;;;;;;;;;;-140.72;100.00;52536.97;4987869;28;19918;-70
2023/07/10 02:44:36;;;;;;;;;;;;;;;-140.72;100.00;52549.13;4991594;28;19921;-70
2023/07/10 02:47:01;;;;;;;;;;;;;;;-140.72;100.00;52512.59;4988127;28;20387;-71
2023/07/10 02:49:28;;;;;;;;;;;;;;;-140.72;100.00;52569.44;4992433;28;19991;-70
2023/07/10 02:51:53;;;;;;;;;;;;;;;-140.72;100.00;52512.59;4991808;28;19922;-70
2023/07/10 02:54:18;;;;;;;;;;;;;;;-140.72;100.00;52510.59;4989629;28;19933;-70
2023/07/10 02:56:43;;;;;;;;;;;;;;;-140.72;100.00;52502.47;5000562;28;20041;-70
2023/07/10 02:59:08;;;;;;;;;;;;;;;-140.72;100.00;52486.22;4974999;28;20060;-70
2023/07/10 03:01:34;;;;;;;;;;;;;;;-140.72;100.00;52520.72;4996064;28;19918;-70
2023/07/10 03:03:59;;;;;;;;;;;;;;;-140.72;100.00;52539.00;4977734;28;19942;-71
2023/07/10 03:06:24;;;;;;;;;;;;;;;-140.72;100.00;52536.97;4995529;28;20368;-70
2023/07/10 03:08:50;;;;;;;;;;;;;;;-140.72;100.00;52514.63;4975980;28;19925;-70
2023/07/10 03:11:16;;;;;;;;;;;;;;;-140.72;100.00;52530.88;4980981;28;20454;-70
2023/07/10 03:13:41;;;;;;;;;;;;;;;-140.72;100.00;52536.97;4994733;28;19974;-70
2023/07/10 03:16:08;;;;;;;;;;;;;;;-140.72;100.00;52532.91;4994135;28;19997;-70
2023/07/10 03:18:33;;;;;;;;;;;;;;;-140.72;100.00;52488.25;4991558;28;19973;-70
2023/07/10 03:20:59;;;;;;;;;;;;;;;-140.72;100.00;52504.50;4973165;28;20020;-70
2023/07/10 03:23:24;;;;;;;;;;;;;;;-140.72;100.00;52577.53;4992457;28;19921;-70
2023/07/10 03:25:49;;;;;;;;;;;;;;;-140.72;100.00;52508.56;4985511;28;19954;-70
2023/07/10 03:28:15;;;;;;;;;;;;;;;-140.72;100.00;52508.56;4990234;28;19957;-70
2023/07/10 03:30:40;;;;;;;;;;;;;;;-140.72;100.00;52518.69;4981784;28;19937;-71
2023/07/10 03:33:06;;;;;;;;;;;;;;;-140.72;100.00;52539.00;4990965;28;20017;-70
2023/07/10 03:35:31;;;;;;;;;;;;;;;-140.72;100.00;52520.72;4990420;28;20290;-70
2023/07/10 03:37:57;;;;;;;;;;;;;;;-140.72;100.00;52510.59;4992109;28;19922;-70
2023/07/10 03:40:22;;;;;;;;;;;;;;;-140.72;100.00;52536.97;4991134;28;20147;-70
2023/07/10 03:42:47;;;;;;;;;;;;;;;-140.72;100.00;52516.66;4988280;28;19929;-70
2023/07/10 03:45:12;;;;;;;;;;;;;;;-140.72;100.00;52504.50;4985983;28;20364;-70
2023/07/10 03:47:38;;;;;;;;;;;;;;;-140.72;100.00;52520.72;4973725;28;19926;-69
2023/07/10 03:50:03;;;;;;;;;;;;;;;-140.72;100.00;52520.72;4990998;28;19921;-70
2023/07/10 03:52:28;;;;;;;;;;;;;;;-140.72;100.00;52528.84;4989664;28;19966;-70
2023/07/10 03:54:54;;;;;;;;;;;;;;;-140.72;100.00;52520.72;4990419;28;20342;-70
2023/07/10 03:57:19;;;;;;;;;;;;;;;-140.72;100.00;52522.75;4992615;28;19988;-70
2023/07/10 03:59:44;;;;;;;;;;;;;;;-140.72;100.00;52522.75;4985717;28;19976;-70
2023/07/10 04:02:10;;;;;;;;;;;;;;;-140.72;100.00;52532.91;4988351;28;20015;-70
2023/07/10 04:04:35;;;;;;;;;;;;;;;-140.72;100.00;52482.16;4982011;28;19922;-71
2023/07/10 04:07:00;;;;;;;;;;;;;;;-140.72;100.00;52530.88;4985548;28;19972;-71
2023/07/10 04:09:25;;;;;;;;;;;;;;;-140.72;100.00;52496.38;4987183;28;19922;-69
2023/07/10 04:11:50;;;;;;;;;;;;;;;-140.72;100.00;52532.91;4985958;28;19922;-70
2023/07/10 04:14:16;;;;;;;;;;;;;;;-140.72;100.00;52516.66;4993577;28;19925;-70
2023/07/10 04:16:42;;;;;;;;;;;;;;;-140.72;100.00;52496.38;4988548;28;20371;-71
2023/07/10 04:19:08;;;;;;;;;;;;;;;-140.72;100.00;52484.19;4984875;28;19929;-71
2023/07/10 04:21:34;;;;;;;;;;;;;;;-140.72;100.00;52486.22;4986786;28;19964;-69
2023/07/10 04:24:00;;;;;;;;;;;;;;;-140.72;100.00;52512.59;4988669;28;19933;-69
2023/07/10 04:26:27;;;;;;;;;;;;;;;-140.72;100.00;52539.00;4989392;28;19922;-70
2023/07/10 04:28:55;;;;;;;;;;;;;;;-140.72;100.00;52510.59;4992710;28;19971;-70
2023/07/10 04:31:27;;;;;;;;;;;;;;;-140.72;100.00;52500.44;4992875;28;20016;-70
2023/07/10 04:33:52;;;;;;;;;;;;;;;-140.72;100.00;52508.56;4986081;28;19958;-70
2023/07/10 04:36:18;;;;;;;;;;;;;;;-140.72;100.00;52486.22;4991235;28;20011;-72
2023/07/10 04:38:43;;;;;;;;;;;;;;;-140.72;100.00;52536.97;4990593;28;19930;-71
2023/07/10 04:41:13;;;;;;;;;;;;;;;-140.72;100.00;52524.78;4975904;28;19922;-71
2023/07/10 04:43:38;;;;;;;;;;;;;;;-140.72;100.00;52536.97;4994489;28;19922;-71
2023/07/10 04:49:06;;;;;;;;;;;;;;;-140.72;100.00;52500.44;4984250;28;19925;-70
2023/07/10 04:51:32;;;;;;;;;;;;;;;-140.72;100.00;52532.91;4982727;28;19922;-71
2023/07/10 04:53:57;;;;;;;;;;;;;;;-140.72;100.00;52486.22;4968573;28;20027;-71
2023/07/10 04:56:22;;;;;;;;;;;;;;;-140.72;100.00;52508.56;4984861;28;20307;-72
2023/07/10 04:58:49;;;;;;;;;;;;;;;-140.72;100.00;52526.81;4986915;28;20012;-75
2023/07/10 05:01:15;;;;;;;;;;;;;;;-140.72;100.00;52492.31;4986931;28;19921;-73
2023/07/10 05:03:40;;;;;;;;;;;;;;;-140.72;100.00;52512.59;4988574;28;20346;-71
2023/07/10 05:06:06;;;;;;;;;;;;;;;-140.72;100.00;52524.78;4967645;28;19922;-73
2023/07/10 05:08:31;;;;;;;;;;;;;;;-140.72;100.00;52492.31;4986378;28;19929;-72
2023/07/10 05:10:56;;;;;;;;;;;;;;;-140.72;100.00;52512.59;4985152;28;19922;-73
2023/07/10 05:13:23;;;;;;;;;;;;;;;-140.72;100.00;52508.56;4983065;28;20375;-73
2023/07/10 05:15:48;;;;;;;;;;;;;;;-140.72;100.00;52532.91;4987257;28;19925;-72
2023/07/10 05:18:14;;;;;;;;;;;;;;;-140.72;100.00;52496.38;4983711;28;20343;-73
2023/07/10 05:20:42;;;;;;;;;;;;;;;-140.72;100.00;52488.25;4984756;28;19952;-72
2023/07/10 05:23:07;;;;;;;;;;;;;;;-140.72;100.00;52494.34;4974654;28;20244;-72
2023/07/10 05:25:33;;;;;;;;;;;;;;;-140.72;100.00;52504.50;4987312;28;19922;-72
2023/07/10 05:27:58;;;;;;;;;;;;;;;-140.72;100.00;52520.72;4967154;28;19965;-72
2023/07/10 05:30:24;;;;;;;;;;;;;;;-140.72;100.00;52467.97;4988878;28;19936;-71
2023/07/10 05:32:49;;;;;;;;;;;;;;;-140.72;100.00;52492.31;4988281;28;20331;-71
2023/07/10 05:35:14;;;;;;;;;;;;;;;-140.72;100.00;52482.16;4983362;28;19937;-71
2023/07/10 05:37:39;;;;;;;;;;;;;;;-140.72;100.00;52488.25;4986134;28;19930;-71
2023/07/10 05:40:05;;;;;;;;;;;;;;;-140.72;100.00;52496.38;4986162;28;19964;-71
2023/07/10 05:42:30;;;;;;;;;;;;;;;-140.72;100.00;52488.25;4968826;28;19928;-71
2023/07/10 05:44:55;;;;;;;;;;;;;;;-140.72;100.00;52488.25;4988852;28;19922;-71
2023/07/10 05:47:21;;;;;;;;;;;;;;;-140.72;100.00;52474.06;4988165;28;19953;-71
2023/07/10 05:49:46;;;;;;;;;;;;;;;-140.72;100.00;52449.72;4984862;28;20443;-71
2023/07/10 05:52:11;;;;;;;;;;;;;;;-140.72;100.00;52492.31;4986786;28;19953;-71
2023/07/10 05:54:37;;;;;;;;;;;;;;;-140.72;100.00;52492.31;4984345;28;20020;-71
2023/07/10 05:57:02;;;;;;;;;;;;;;;-140.72;100.00;52486.22;4989697;28;19968;-72
2023/07/10 05:59:27;;;;;;;;;;;;;;;-140.72;100.00;52492.31;4986415;28;20344;-73
2023/07/10 06:01:53;;;;;;;;;;;;;;;-140.72;100.00;52470.00;4988937;28;19944;-74
2023/07/10 06:04:19;;;;;;;;;;;;;;;-140.72;100.00;52453.75;4990876;28;20001;-74
2023/07/10 06:06:44;;;;;;;;;;;;;;;-140.72;100.00;52467.97;4990299;28;20384;-72
2023/07/10 06:09:35;;;;;;;;;;;;;;;-140.72;100.00;52484.19;4983044;28;19922;-71
2023/07/10 06:12:01;;;;;;;;;;;;;;;-140.72;100.00;52470.00;4972905;28;19918;-71
2023/07/10 06:14:27;;;;;;;;;;;;;;;-140.72;100.00;52476.09;4995979;28;19925;-72
2023/07/10 06:16:52;;;;;;;;;;;;;;;-140.72;100.00;52459.84;4994750;28;19918;-71
2023/07/10 06:19:18;;;;;;;;;;;;;;;-140.72;100.00;52447.69;4994665;28;19929;-71
2023/07/10 06:21:46;;;;;;;;;;;;;;;-140.72;100.00;52435.50;4973850;28;19929;-71
2023/07/10 06:24:11;;;;;;;;;;;;;;;-140.72;100.00;52453.75;4989627;28;20005;-71
2023/07/10 06:26:36;;;;;;;;;;;;;;;-140.72;100.00;52441.59;4986922;28;19973;-70
2023/07/10 06:29:01;;;;;;;;;;;;;;;-140.72;100.00;52433.47;4987372;28;20291;-71
2023/07/10 06:31:27;;;;;;;;;;;;;;;-140.72;100.00;52411.16;4996056;28;19922;-73
2023/07/10 06:33:52;;;;;;;;;;;;;;;-140.72;100.00;52421.28;4994567;28;19922;-73
2023/07/10 06:36:17;;;;;;;;;;;;;;;-140.72;100.00;52423.31;4996223;28;19922;-73
2023/07/10 06:38:43;;;;;;;;;;;;;;;-140.72;100.00;52431.44;4979555;28;20012;-74
2023/07/10 06:41:10;;;;;;;;;;;;;;;-140.72;100.00;52413.19;4979149;28;19928;-73
2023/07/10 06:43:35;;;;;;;;;;;;;;;-140.72;100.00;52451.72;4993164;28;19918;-73
2023/07/10 06:46:00;;;;;;;;;;;;;;;-140.72;100.00;52451.72;4981716;28;19918;-74
2023/07/10 06:48:25;;;;;;;;;;;;;;;-140.72;100.00;52411.16;4979627;28;20364;-74
2023/07/10 06:50:55;;;;;;;;;;;;;;;-140.72;100.00;52443.63;4984430;28;19925;-74
2023/07/10 06:53:21;;;;;;;;;;;;;;;-140.72;100.00;52425.34;4978645;28;19936;-73
2023/07/10 06:55:55;;;;;;;;;;;;;;;-140.72;100.00;52413.19;4993391;28;20396;-74
2023/07/10 06:58:20;;;;;;;;;;;;;;;-140.72;100.00;52437.53;4992237;28;19930;-74
2023/07/10 07:00:46;;;;;;;;;;;;;;;-140.72;100.00;52437.53;4971971;28;19972;-73
2023/07/10 07:03:11;;;;;;;;;;;;;;;-140.72;100.00;52411.16;4994534;28;19917;-74
2023/07/10 07:05:39;;;;;;;;;;;;;;;-140.72;100.00;52415.22;4991525;28;19937;-74
2023/07/10 07:08:05;;;;;;;;;;;;;;;-140.72;100.00;52415.22;4988156;28;20019;-74
2023/07/10 07:10:32;;;;;;;;;;;;;;;-140.72;100.00;52423.31;4992818;28;20072;-73
2023/07/10 07:12:57;;;;;;;;;;;;;;;-140.72;100.00;52407.09;4975428;28;20303;-73
2023/07/10 07:15:23;;;;;;;;;;;;;;;-140.72;100.00;52398.97;4992232;28;19953;-73
2023/07/10 07:17:48;;;;;;;;;;;;;;;-140.72;100.00;52413.19;4989788;28;20345;-73
2023/07/10 07:20:13;;;;;;;;;;;;;;;-140.72;100.00;52382.75;4992466;28;19941;-74
2023/07/10 07:22:38;;;;;;;;;;;;;;;-140.72;100.00;52417.25;4991417;28;19926;-73
2023/07/10 07:25:04;;;;;;;;;;;;;;;-140.72;100.00;52415.22;4990659;28;19921;-73
2023/07/10 07:27:40;;;;;;;;;;;;;;;-140.72;100.00;52372.59;4989040;28;19965;-73
2023/07/10 07:30:05;;;;;;;;;;;;;;;-140.72;100.00;52362.44;4976579;28;20017;-73
2023/07/10 07:35:40;;;;;;;;;;;;;;;-140.72;66.25;52403.03;4988389;28;19945;-73
2023/07/10 07:38:06;;;;;;;;;;;;;;;-140.72;57.69;52398.97;4978634;28;20371;-73
2023/07/10 07:40:32;;;;;;;;;;;;;;;-140.72;19.63;52368.53;4989912;28;19929;-73
2023/07/10 07:42:57;;;;;;;;;;;;;;;-140.72;2.47;52390.84;4981492;28;20088;-73
2023/07/10 07:45:22;;;;;;;;;;;;;;;-140.72;4.28;52411.16;4968389;28;19921;-72
2023/07/10 07:47:48;;;;;;;;;;;;;;;-140.72;0.00;52380.72;4986274;28;19964;-72
2023/07/10 07:50:13;;;;;;;;;;;;;;;-140.72;0.00;52403.03;4972429;28;19944;-72
2023/07/10 07:52:38;;;;;;;;;;;;;;;-140.72;0.00;52350.28;4974249;28;20268;-72
2023/07/10 07:55:04;;;;;;;;;;;;;;;-140.72;0.00;52342.16;4990343;28;20043;-73
2023/07/10 07:57:29;;;;;;;;;;;;;;;-140.72;0.00;52374.63;4992753;28;19949;-72
2023/07/10 07:59:54;;;;;;;;;;;;;;;-140.72;0.00;52390.84;4991213;28;20379;-72
2023/07/10 08:02:20;;;;;;;;;;;;;;;-140.72;0.00;52352.31;4991851;28;20016;-72
2023/07/10 08:04:45;;;;;;;;;;;;;;;-140.72;0.00;52334.03;4992077;28;19925;-73
2023/07/10 08:07:10;;;;;;;;;;;;;;;-140.72;0.00;52346.22;4984181;28;20337;-73
2023/07/10 08:09:36;;;;;;;;;;;;;;;-140.72;0.00;52374.63;4987690;28;19949;-73
2023/07/10 08:12:01;;;;;;;;;;;;;;;-140.72;0.00;52358.41;4984960;28;20360;-74
2023/07/10 08:14:26;;;;;;;;;;;;;;;-140.72;0.00;52344.19;4997429;28;19925;-73
2023/07/10 08:16:52;;;;;;;;;;;;;;;-140.72;0.00;52358.41;4979409;28;20303;-73
2023/07/10 08:19:17;;;;;;;;;;;;;;;-140.72;0.00;52323.91;4991660;28;19917;-74
2023/07/10 08:21:42;;;;;;;;;;;;;;;-140.72;0.00;52307.66;4991265;28;19937;-73
2023/07/10 08:24:07;;;;;;;;;;;;;;;-140.72;0.00;52334.03;4991269;28;19922;-74
2023/07/10 08:26:33;;;;;;;;;;;;;;;-140.72;0.00;52285.34;4975040;28;20314;-73
2023/07/10 08:29:18;;;;;;;;;;;;;;;-140.72;0.00;52265.06;4993355;28;19949;-74
2023/07/10 08:31:43;;;;;;;;;;;;;;;-140.72;0.00;52289.41;4989928;28;20376;-73
2023/07/10 08:34:08;;;;;;;;;;;;;;;-140.72;0.00;52307.66;4972155;28;19952;-74
2023/07/10 08:36:34;;;;;;;;;;;;;;;-140.72;0.00;52321.88;4981923;28;19929;-73
2023/07/10 08:38:59;;;;;;;;;;;;;;;-140.72;0.00;52277.22;4991470;28;19929;-74
2023/07/10 08:41:24;;;;;;;;;;;;;;;-140.72;0.00;52275.19;4989179;28;19922;-73
2023/07/10 08:43:49;;;;;;;;;;;;;;;-140.72;0.00;52305.63;4992703;28;19921;-74
2023/07/10 08:46:19;;;;;;;;;;;;;;;-140.72;0.00;52275.19;4981471;28;19991;-74
2023/07/10 08:48:50;;;;;;;;;;;;;;;-140.72;0.00;52236.66;4986330;28;19922;-73
2023/07/10 08:51:21;;;;;;;;;;;;;;;-140.72;0.00;52250.84;4967762;28;20033;-74
2023/07/10 08:54:00;;;;;;;;;;;;;;;-140.72;0.00;52287.38;4989783;28;19976;-74
2023/07/10 08:56:34;;;;;;;;;;;;;;;-140.72;0.00;52242.75;4991017;28;20391;-74
2023/07/10 08:59:09;;;;;;;;;;;;;;;-140.72;0.00;52246.78;4992161;28;19921;-73
2023/07/10 09:01:36;;;;;;;;;;;;;;;-140.72;0.00;52273.19;4991483;28;19929;-74
2023/07/10 09:04:04;;;;;;;;;;;;;;;-140.72;0.00;52269.13;4988714;28;20414;-73
2023/07/10 09:06:29;;;;;;;;;;;;;;;-140.72;0.00;52232.59;4988784;28;19922;-73
2023/07/10 09:08:54;;;;;;;;;;;;;;;-140.72;0.00;52224.47;4990431;28;19967;-74
2023/07/10 09:11:20;;;;;;;;;;;;;;;-140.72;0.00;52226.50;4976358;28;19973;-74
2023/07/10 09:14:10;;;;;;;;;;;;;;;-140.72;0.00;52232.59;4993309;28;19941;-74
2023/07/10 09:16:35;;;;;;;;;;;;;;;-140.72;0.00;52222.44;4974231;28;19918;-73
2023/07/10 09:19:06;;;;;;;;;;;;;;;-140.72;0.00;52228.53;4991162;28;20291;-72
2023/07/10 09:21:34;;;;;;;;;;;;;;;-140.72;0.00;52183.91;4993673;28;20371;-73
2023/07/10 09:24:00;;;;;;;;;;;;;;;-140.72;0.00;52173.75;4995431;28;19968;-73
2023/07/10 09:26:38;;;;;;;;;;;;;;;-140.72;0.00;52143.31;4993277;28;19922;-73
2023/07/10 09:29:21;;;;;;;;;;;;;;;-140.72;0.00;52127.09;4992352;28;20024;-73
2023/07/10 09:31:53;;;;;;;;;;;;;;;-140.72;0.00;52125.06;4986809;28;19917;-73
2023/07/10 09:34:23;;;;;;;;;;;;;;;-140.72;0.00;52131.16;4976423;28;20017;-73
2023/07/10 09:36:52;;;;;;;;;;;;;;;-140.72;0.00;52072.31;4974641;28;20264;-73
2023/07/10 09:39:18;;;;;;;;;;;;;;;-140.72;0.00;52100.72;4992701;28;19921;-73
2023/07/10 09:41:44;;;;;;;;;;;;;;;-140.72;0.00;52045.94;4987131;28;20061;-73
2023/07/10 09:44:20;;;;;;;;;;;;;;;-140.72;0.00;52013.47;4991359;28;19928;-73
2023/07/10 09:46:45;;;;;;;;;;;;;;;-140.72;0.00;52090.56;4983220;28;19918;-73
2023/07/10 09:49:21;;;;;;;;;;;;;;;-140.72;0.00;52131.16;4979316;28;19929;-73
2023/07/10 09:51:49;;;;;;;;;;;;;;;-140.72;0.00;52100.72;4989285;28;19926;-73
2023/07/10 09:54:14;;;;;;;;;;;;;;;-140.72;0.00;52037.81;4988289;28;19925;-74
2023/07/10 09:56:40;;;;;;;;;;;;;;;-140.72;0.00;52047.97;4966094;28;20285;-73
2023/07/10 09:59:19;;;;;;;;;;;;;;;-140.72;0.00;52064.19;4992610;28;19917;-72
2023/07/10 10:01:46;;;;;;;;;;;;;;;-140.72;0.00;52135.19;4993457;28;19981;-72
2023/07/10 10:04:11;;;;;;;;;;;;;;;-140.72;0.00;52062.16;4991860;28;19930;-73
2023/07/10 10:06:40;;;;;;;;;;;;;;;-140.72;0.00;52035.78;4989037;28;19996;-75
2023/07/10 10:09:13;;;;;;;;;;;;;;;-140.72;0.00;51987.09;4988621;28;19933;-73
2023/07/10 10:11:51;;;;;;;;;;;;;;;-140.72;0.00;51962.75;4981798;28;19922;-73
2023/07/10 10:14:22;;;;;;;;;;;;;;;-140.72;0.00;52025.63;4986979;28;20016;-74
2023/07/10 10:16:55;;;;;;;;;;;;;;;-140.72;0.00;52078.38;4994012;28;20430;-73
2023/07/10 10:19:24;;;;;;;;;;;;;;;-140.72;0.00;52123.03;4991346;28;19989;-74
2023/07/10 10:21:49;;;;;;;;;;;;;;;-140.72;0.00;52153.47;4989675;28;19918;-74
2023/07/10 10:24:15;;;;;;;;;;;;;;;-140.72;0.00;52123.03;4973742;28;19922;-74
2023/07/10 10:26:59;;;;;;;;;;;;;;;-140.72;0.00;52169.69;4991983;28;19928;-73
2023/07/10 10:29:43;;;;;;;;;;;;;;;-140.72;0.00;52072.31;4987244;28;19921;-73
2023/07/10 10:32:08;;;;;;;;;;;;;;;-140.72;0.00;52153.47;4987141;28;19992;-74
2023/07/10 10:34:45;;;;;;;;;;;;;;;-140.72;0.00;51985.06;4984449;28;20353;-72
2023/07/10 10:37:29;;;;;;;;;;;;;;;-140.72;0.00;52041.88;4983547;28;19933;-73
2023/07/10 10:40:13;;;;;;;;;;;;;;;-140.72;0.00;51999.25;4986411;28;19921;-72
2023/07/10 10:42:43;;;;;;;;;;;;;;;-140.72;0.00;51987.09;4987018;28;19968;-73
2023/07/10 10:45:15;;;;;;;;;;;;;;;-140.72;0.00;51991.16;4983812;28;19921;-73
2023/07/10 10:47:45;;;;;;;;;;;;;;;-140.72;0.00;52064.19;4974725;28;19933;-72
2023/07/10 10:50:46;;;;;;;;;;;;;;;-140.72;0.00;52072.31;5000920;28;19929;-72
2023/07/10 10:53:11;;;;;;;;;;;;;;;-140.72;0.00;52100.72;4896549;29;19983;-72
2023/07/10 10:55:42;;;;;;;;;;;;;;;-140.72;0.00;52155.50;4952534;28;19976;-72
2023/07/10 10:58:07;;;;;;;;;;;;;;;-140.72;0.00;52106.78;4988029;28;21044;-72
2023/07/10 11:00:51;;;;;;;;;;;;;;;-140.72;0.00;52187.97;4990097;28;20038;-72
2023/07/10 11:03:25;;;;;;;;;;;;;;;-140.72;0.00;52118.97;4990650;28;19926;-72
2023/07/10 11:06:12;;;;;;;;;;;;;;;-140.72;0.00;52127.09;4994532;28;19921;-72
2023/07/10 11:08:42;;;;;;;;;;;;;;;-140.72;0.00;52187.97;4987806;28;19928;-72
2023/07/10 11:11:14;;;;;;;;;;;;;;;-140.72;0.00;52183.91;4974500;28;19922;-72
2023/07/10 11:13:39;;;;;;;;;;;;;;;-140.72;0.00;52121.00;4994125;28;19922;-72
2023/07/10 11:16:06;;;;;;;;;;;;;;;-140.72;0.00;52035.78;4992522;28;19991;-72
2023/07/10 11:18:32;;;;;;;;;;;;;;;-140.72;0.00;51995.19;4977209;28;19958;-73
2023/07/10 11:20:59;;;;;;;;;;;;;;;-140.72;0.00;52078.38;4969557;28;19922;-74
2023/07/10 11:23:33;;;;;;;;;;;;;;;-140.72;0.00;51976.94;4987357;28;20340;-75
2023/07/10 11:26:00;;;;;;;;;;;;;;;-140.72;0.00;51920.13;4985149;28;19936;-73
2023/07/10 11:28:26;;;;;;;;;;;;;;;-140.72;0.00;51847.09;4983213;28;20023;-74
2023/07/10 11:31:12;;;;;;;;;;;;;;;-140.72;0.00;51772.03;4992242;28;19976;-72
2023/07/10 11:33:37;;;;;;;;;;;;;;;-140.72;0.00;51901.88;4985416;28;19928;-72
2023/07/10 11:36:14;;;;;;;;;;;;;;;-140.72;0.00;51976.94;4982899;28;19925;-72
2023/07/10 11:38:58;;;;;;;;;;;;;;;-140.72;0.00;51851.16;4965261;28;19929;-72
2023/07/10 11:41:25;;;;;;;;;;;;;;;-140.72;0.00;51871.44;4983536;28;20009;-72
2023/07/10 11:43:55;;;;;;;;;;;;;;;-140.72;0.00;51814.63;4993951;28;19965;-74
2023/07/10 11:46:25;;;;;;;;;;;;;;;-140.72;0.00;51847.09;4978350;28;19925;-73
2023/07/10 11:49:10;;;;;;;;;;;;;;;-140.72;0.00;51997.22;4977623;28;19936;-73
2023/07/10 11:51:38;;;;;;;;;;;;;;;-140.72;0.00;52025.63;4985761;28;19976;-73
2023/07/10 11:54:15;;;;;;;;;;;;;;;-140.72;0.00;52035.78;4992232;28;19933;-74
2023/07/10 11:56:59;;;;;;;;;;;;;;;-140.72;0.00;52157.53;4993525;28;19922;-73
2023/07/10 11:59:26;;;;;;;;;;;;;;;-140.72;0.00;52114.91;4992805;28;19922;-74
2023/07/10 12:01:51;;;;;;;;;;;;;;;-140.72;0.00;52037.81;4991727;28;19918;-73
2023/07/10 12:04:18;;;;;;;;;;;;;;;-140.72;0.00;52029.69;4992149;28;19929;-71
2023/07/10 12:06:44;;;;;;;;;;;;;;;-140.72;0.00;52074.34;4982771;28;19929;-72
2023/07/10 12:09:09;;;;;;;;;;;;;;;-140.72;0.00;52031.72;4974959;28;19922;-73
2023/07/10 12:11:38;;;;;;;;;;;;;;;-140.72;0.00;51881.59;4992855;28;19933;-73
2023/07/10 12:14:14;;;;;;;;;;;;;;;-140.72;0.00;51853.19;4987508;28;19926;-72
2023/07/10 12:17:06;;;;;;;;;;;;;;;-140.72;0.00;51936.38;4964629;28;20302;-73
2023/07/10 12:19:35;;;;;;;;;;;;;;;-140.72;0.00;51907.97;4986310;28;19961;-73
2023/07/10 12:22:02;;;;;;;;;;;;;;;-140.72;0.00;51936.38;4982799;28;19922;-73
2023/07/10 12:24:27;;;;;;;;;;;;;;;-140.72;0.00;51897.81;4973555;28;20268;-73
2023/07/10 12:26:53;;;;;;;;;;;;;;;-140.72;0.00;51978.97;4993886;28;19929;-73
2023/07/10 12:29:18;;;;;;;;;;;;;;;-140.72;0.00;52039.84;4989839;28;19996;-73
2023/07/10 12:31:44;;;;;;;;;;;;;;;-140.72;0.00;52086.50;4994273;28;20085;-73
2023/07/10 12:34:16;;;;;;;;;;;;;;;-140.72;0.00;52076.34;4988276;28;20140;-73
2023/07/10 12:36:41;;;;;;;;;;;;;;;-140.72;0.00;52112.88;4991023;28;19975;-73